Time;durP1;ratioP1;P1;durP2;ratioP2;P2;SDS_P1;SDS_P2;PMS_P1;PMS_P2;Temp;Humidity;BMP_temperature;BMP_pressure;BME280_temperature;BME280_humidity;BME280_pressure;Samples;Min_cycle;Max_cycle;Signal;HPM_P1;HPM_P2
2022/09/16 00:01:16;;;;;;;1.80;0.93;;;14.10;76.20;;;;;;6211600;23;20009;-66
2022/09/16 00:03:43;;;;;;;2.88;0.80;;;14.10;76.20;;;;;;6211639;23;20000;-66
2022/09/16 00:06:26;;;;;;;2.63;0.82;;;14.10;76.00;;;;;;6210921;23;20486;-66
2022/09/16 00:08:54;;;;;;;2.55;1.10;;;14.10;76.10;;;;;;6211410;23;20000;-65
2022/09/16 00:11:20;;;;;;;3.22;1.00;;;14.10;76.00;;;;;;6211266;23;20000;-65
2022/09/16 00:13:46;;;;;;;1.88;1.00;;;14.10;76.10;;;;;;6211584;23;20001;-66
2022/09/16 00:16:17;;;;;;;2.40;1.00;;;14.10;76.00;;;;;;6211480;23;20452;-66
2022/09/16 00:18:43;;;;;;;3.63;0.88;;;14.10;76.10;;;;;;6211305;23;20055;-65
2022/09/16 00:21:09;;;;;;;3.70;1.20;;;14.10;76.10;;;;;;6211521;23;20008;-65
2022/09/16 00:23:36;;;;;;;2.30;0.93;;;14.10;76.00;;;;;;6211152;23;20007;-65
2022/09/16 00:26:03;;;;;;;2.17;0.93;;;14.10;76.00;;;;;;6211051;23;20001;-66
2022/09/16 00:28:29;;;;;;;2.88;1.10;;;14.10;76.10;;;;;;6211179;23;20028;-65
2022/09/16 00:30:58;;;;;;;3.85;1.15;;;14.10;76.30;;;;;;6210780;23;20031;-65
2022/09/16 00:33:24;;;;;;;3.00;1.00;;;14.10;76.30;;;;;;6213100;23;20067;-65
2022/09/16 00:35:50;;;;;;;1.80;0.80;;;14.20;76.30;;;;;;6212867;23;20005;-66
2022/09/16 00:38:15;;;;;;;2.47;0.80;;;14.20;76.10;;;;;;6212977;23;20426;-65
2022/09/16 00:40:49;;;;;;;2.50;0.95;;;14.20;76.10;;;;;;6212868;23;20012;-65
2022/09/16 00:43:17;;;;;;;1.83;1.00;;;14.20;76.30;;;;;;6212940;23;20009;-65
2022/09/16 00:45:46;;;;;;;2.70;1.00;;;14.10;76.30;;;;;;6212994;23;20020;-65
2022/09/16 00:48:19;;;;;;;2.13;0.90;;;14.20;76.20;;;;;;6212697;23;20035;-65
2022/09/16 00:50:55;;;;;;;3.38;0.90;;;14.20;76.30;;;;;;6212882;23;20007;-65
2022/09/16 00:53:25;;;;;;;1.73;0.80;;;14.20;76.30;;;;;;6212846;23;19997;-65
2022/09/16 00:55:53;;;;;;;3.85;0.98;;;14.20;76.40;;;;;;6212676;23;20008;-66
2022/09/16 00:58:35;;;;;;;3.03;0.90;;;14.20;76.50;;;;;;6211208;23;20063;-66
2022/09/16 01:01:04;;;;;;;2.10;0.70;;;14.20;77.10;;;;;;6212497;23;20005;-65
2022/09/16 01:03:34;;;;;;;2.38;0.80;;;14.20;76.40;;;;;;6212692;23;20062;-65
2022/09/16 01:05:59;;;;;;;3.30;0.88;;;14.20;76.30;;;;;;6212902;23;20011;-66
2022/09/16 01:08:25;;;;;;;4.60;0.90;;;14.20;76.30;;;;;;6213231;23;20079;-66
2022/09/16 01:10:51;;;;;;;1.80;0.90;;;14.20;76.40;;;;;;6212976;23;20435;-66
2022/09/16 01:13:17;;;;;;;4.15;1.15;;;14.20;76.50;;;;;;6212789;23;20050;-65
2022/09/16 01:16:00;;;;;;;1.27;0.80;;;14.20;76.60;;;;;;6212751;23;20091;-66
2022/09/16 01:18:36;;;;;;;1.45;0.70;;;14.20;76.60;;;;;;6212776;23;20000;-66
2022/09/16 01:21:30;;;;;;;4.70;0.80;;;14.20;76.70;;;;;;6212763;23;20057;-66
2022/09/16 01:24:20;;;;;;;2.72;0.93;;;14.20;76.70;;;;;;6212276;23;20064;-66
2022/09/16 01:27:26;;;;;;;1.42;0.70;;;14.20;76.80;;;;;;6212566;23;20012;-66
2022/09/16 01:30:13;;;;;;;2.65;0.70;;;14.20;76.90;;;;;;6210981;23;20011;-67
2022/09/16 01:33:04;;;;;;;1.98;0.75;;;14.10;77.10;;;;;;6212967;23;20089;-67
2022/09/16 01:35:36;;;;;;;2.40;0.80;;;14.10;77.30;;;;;;6212484;23;20004;-67
2022/09/16 01:38:04;;;;;;;2.85;0.98;;;14.00;77.40;;;;;;6211225;23;20367;-67
2022/09/16 01:40:56;;;;;;;1.92;0.82;;;14.10;77.40;;;;;;6210838;23;20043;-67
2022/09/16 01:43:43;;;;;;;2.55;0.90;;;14.10;77.40;;;;;;6212376;23;20515;-67
2022/09/16 01:46:27;;;;;;;2.22;1.20;;;14.10;77.50;;;;;;6212494;23;20079;-67
2022/09/16 01:49:21;;;;;;;3.60;0.80;;;14.10;77.50;;;;;;6212110;23;20084;-67
2022/09/16 01:52:05;;;;;;;4.13;1.02;;;14.10;77.50;;;;;;6212611;23;20001;-67
2022/09/16 01:54:47;;;;;;;2.03;0.80;;;14.10;77.40;;;;;;6211955;23;20365;-66
2022/09/16 01:57:20;;;;;;;3.23;0.90;;;14.10;77.40;;;;;;6212422;23;20032;-66
2022/09/16 02:00:06;;;;;;;2.10;0.80;;;14.10;77.40;;;;;;6211501;23;20031;-66
2022/09/16 02:02:37;;;;;;;3.42;1.10;;;14.10;77.40;;;;;;6212048;23;20087;-68
2022/09/16 02:05:08;;;;;;;2.47;0.82;;;14.10;77.40;;;;;;6211709;23;20011;-67
2022/09/16 02:07:39;;;;;;;3.28;1.00;;;14.10;77.50;;;;;;6212124;23;20007;-67
2022/09/16 02:10:22;;;;;;;4.13;1.00;;;14.10;77.60;;;;;;6211707;23;20058;-67
2022/09/16 02:12:49;;;;;;;2.08;0.90;;;14.10;77.60;;;;;;6211753;23;20032;-67
2022/09/16 02:15:21;;;;;;;3.97;1.10;;;14.00;77.60;;;;;;6211358;23;20005;-67
2022/09/16 02:17:55;;;;;;;3.10;1.13;;;14.00;77.70;;;;;;6212042;23;20001;-67
2022/09/16 02:20:26;;;;;;;2.17;1.10;;;14.00;77.80;;;;;;6210737;23;20001;-66
2022/09/16 02:23:01;;;;;;;2.78;1.00;;;14.00;78.00;;;;;;6211002;23;20706;-66
2022/09/16 02:25:30;;;;;;;3.33;1.08;;;14.00;78.20;;;;;;6211572;23;20378;-66
2022/09/16 02:27:58;;;;;;;2.55;1.35;;;14.00;78.30;;;;;;6211795;23;20006;-66
2022/09/16 02:30:24;;;;;;;4.20;1.48;;;14.00;78.30;;;;;;6211594;23;20000;-66
2022/09/16 02:32:56;;;;;;;2.88;1.10;;;13.90;78.40;;;;;;6211941;23;20007;-66
2022/09/16 02:35:22;;;;;;;2.08;0.98;;;13.90;78.50;;;;;;6211937;23;20000;-66
2022/09/16 02:37:58;;;;;;;3.50;1.10;;;13.90;78.50;;;;;;6211624;23;20453;-66
2022/09/16 02:40:31;;;;;;;2.47;0.80;;;13.80;78.60;;;;;;6210336;23;20012;-66
2022/09/16 02:42:58;;;;;;;2.72;0.93;;;13.80;78.70;;;;;;6211946;23;20011;-66
2022/09/16 02:45:32;;;;;;;3.00;0.90;;;13.80;78.70;;;;;;6211506;23;20382;-65
2022/09/16 02:48:12;;;;;;;2.88;1.00;;;13.80;78.70;;;;;;6212137;23;20004;-65
2022/09/16 02:50:40;;;;;;;2.13;0.90;;;13.80;78.80;;;;;;6211993;23;20075;-66
2022/09/16 02:53:21;;;;;;;1.38;0.80;;;13.70;79.00;;;;;;6212151;23;20334;-65
2022/09/16 02:55:55;;;;;;;2.03;1.05;;;13.70;79.00;;;;;;6211265;23;20051;-66
2022/09/16 02:58:20;;;;;;;3.03;0.93;;;13.70;78.90;;;;;;6212108;23;20039;-66
2022/09/16 03:00:51;;;;;;;3.97;0.80;;;13.70;79.00;;;;;;6211914;23;20009;-66
2022/09/16 03:03:17;;;;;;;2.33;0.90;;;13.70;78.90;;;;;;6212314;23;20011;-66
2022/09/16 03:06:12;;;;;;;3.63;1.00;;;13.70;78.90;;;;;;6211785;23;20005;-66
2022/09/16 03:08:39;;;;;;;5.40;1.17;;;13.70;78.90;;;;;;6209823;23;20004;-66
2022/09/16 03:11:22;;;;;;;2.13;0.90;;;13.80;78.90;;;;;;6210232;23;20000;-66
2022/09/16 03:13:58;;;;;;;4.35;1.15;;;13.80;78.90;;;;;;6211957;23;20503;-65
2022/09/16 03:16:38;;;;;;;2.08;1.10;;;13.70;78.90;;;;;;6212105;23;20047;-68
2022/09/16 03:19:04;;;;;;;1.10;0.70;;;13.70;78.80;;;;;;6211777;23;20009;-65
2022/09/16 03:21:47;;;;;;;2.25;0.90;;;13.70;78.70;;;;;;6211762;23;20079;-65
2022/09/16 03:24:26;;;;;;;2.20;0.75;;;13.80;78.70;;;;;;6212070;23;20000;-65
2022/09/16 03:27:22;;;;;;;2.60;0.85;;;13.80;78.80;;;;;;6211596;23;20016;-66
2022/09/16 03:29:56;;;;;;;2.83;0.70;;;13.80;78.70;;;;;;6212085;23;20080;-66
2022/09/16 03:32:29;;;;;;;1.73;0.70;;;13.80;79.20;;;;;;6211443;23;20465;-65
2022/09/16 03:34:58;;;;;;;2.20;0.80;;;13.80;78.60;;;;;;6211552;23;19997;-66
2022/09/16 03:37:27;;;;;;;2.53;0.95;;;13.80;78.60;;;;;;6210026;23;20372;-66
2022/09/16 03:39:58;;;;;;;2.33;0.90;;;13.70;78.70;;;;;;6211719;23;20001;-66
2022/09/16 03:42:24;;;;;;;3.13;0.80;;;13.70;78.70;;;;;;6211261;23;20005;-65
2022/09/16 03:44:49;;;;;;;2.00;0.75;;;13.70;78.70;;;;;;6210324;23;20007;-65
2022/09/16 03:47:16;;;;;;;1.85;0.88;;;13.70;78.70;;;;;;6211538;23;20003;-65
2022/09/16 03:49:41;;;;;;;2.95;1.00;;;13.70;78.70;;;;;;6211341;23;20005;-66
2022/09/16 03:52:07;;;;;;;2.65;0.73;;;13.70;78.80;;;;;;6211202;23;20000;-65
2022/09/16 03:54:34;;;;;;;1.92;0.70;;;13.70;78.90;;;;;;6211624;23;19996;-65
2022/09/16 03:56:59;;;;;;;2.38;0.90;;;13.70;78.80;;;;;;6211004;23;20035;-66
2022/09/16 03:59:26;;;;;;;1.20;0.50;;;13.70;78.80;;;;;;6211473;23;20000;-65
2022/09/16 04:01:52;;;;;;;1.67;0.95;;;13.70;78.80;;;;;;6210590;23;20005;-65
2022/09/16 04:04:17;;;;;;;1.90;0.80;;;13.70;78.90;;;;;;6211352;23;20004;-66
2022/09/16 04:06:43;;;;;;;2.22;0.70;;;13.70;78.90;;;;;;6210351;23;20055;-66
2022/09/16 04:09:12;;;;;;;2.50;0.85;;;13.80;78.80;;;;;;6210808;23;20001;-66
2022/09/16 04:11:38;;;;;;;2.42;0.80;;;13.70;78.70;;;;;;6210809;23;19997;-65
2022/09/16 04:14:05;;;;;;;2.13;0.75;;;13.70;78.80;;;;;;6210739;23;20028;-66
2022/09/16 04:16:31;;;;;;;1.75;0.73;;;13.70;79.00;;;;;;6210948;23;20008;-66
2022/09/16 04:18:57;;;;;;;2.83;0.75;;;13.70;79.10;;;;;;6210549;23;20438;-66
2022/09/16 04:21:22;;;;;;;1.33;0.80;;;13.70;79.20;;;;;;6210713;23;20090;-67
2022/09/16 04:23:49;;;;;;;1.95;1.02;;;13.70;79.30;;;;;;6210915;23;20004;-66
2022/09/16 04:26:15;;;;;;;2.45;1.08;;;13.60;79.40;;;;;;6210772;23;20012;-66
2022/09/16 04:28:41;;;;;;;3.25;1.30;;;13.60;79.40;;;;;;6210904;23;20055;-66
2022/09/16 04:31:11;;;;;;;2.05;1.08;;;13.60;79.80;;;;;;6210950;23;20004;-66
2022/09/16 04:33:37;;;;;;;1.77;0.90;;;13.60;80.00;;;;;;6211342;23;19997;-66
2022/09/16 04:36:12;;;;;;;2.55;0.90;;;13.60;80.00;;;;;;6211049;23;20573;-66
2022/09/16 04:38:39;;;;;;;1.23;0.73;;;13.60;80.00;;;;;;6210667;23;20005;-64
2022/09/16 04:41:11;;;;;;;1.85;0.93;;;13.60;80.00;;;;;;6211100;23;20446;-65
2022/09/16 04:43:37;;;;;;;2.47;0.93;;;13.60;80.10;;;;;;6210734;23;20001;-67
2022/09/16 04:46:03;;;;;;;1.90;0.77;;;13.60;80.20;;;;;;6210968;23;20005;-66
2022/09/16 04:48:29;;;;;;;3.08;0.90;;;13.60;80.20;;;;;;6210911;23;20072;-66
2022/09/16 04:51:04;;;;;;;1.73;0.80;;;13.60;80.10;;;;;;6211373;23;20028;-67
2022/09/16 04:53:30;;;;;;;2.38;0.90;;;13.70;80.00;;;;;;6211354;23;20385;-67
2022/09/16 04:56:05;;;;;;;3.40;1.20;;;13.60;79.90;;;;;;6211027;23;20007;-67
2022/09/16 04:58:31;;;;;;;1.92;0.95;;;13.70;80.00;;;;;;6211244;23;20072;-64
2022/09/16 05:01:03;;;;;;;2.05;0.80;;;13.60;79.90;;;;;;6211265;23;20381;-64
2022/09/16 05:03:29;;;;;;;2.53;0.90;;;13.60;79.80;;;;;;6211292;23;20001;-66
2022/09/16 05:06:03;;;;;;;3.47;1.00;;;13.60;79.80;;;;;;6211139;23;20009;-66
2022/09/16 05:08:29;;;;;;;2.10;0.80;;;13.60;79.80;;;;;;6211061;23;20036;-66
2022/09/16 05:10:54;;;;;;;1.85;0.80;;;13.60;79.80;;;;;;6211271;23;20046;-66
2022/09/16 05:13:22;;;;;;;1.90;0.80;;;13.50;79.70;;;;;;6210922;23;20001;-66
2022/09/16 05:15:47;;;;;;;2.22;1.00;;;13.60;79.70;;;;;;6211306;23;20028;-66
2022/09/16 05:18:13;;;;;;;2.42;0.98;;;13.60;79.70;;;;;;6212180;23;20008;-66
2022/09/16 05:20:38;;;;;;;2.72;0.70;;;13.50;79.60;;;;;;6212996;23;20028;-66
2022/09/16 05:23:04;;;;;;;1.63;0.70;;;13.50;79.70;;;;;;6212986;23;20425;-66
2022/09/16 05:25:29;;;;;;;2.15;0.80;;;13.50;79.70;;;;;;6212680;23;20016;-66
2022/09/16 05:27:55;;;;;;;2.03;0.65;;;13.40;79.70;;;;;;6212722;23;20012;-67
2022/09/16 05:30:20;;;;;;;2.88;1.00;;;13.40;79.80;;;;;;6211277;23;20363;-66
2022/09/16 05:32:46;;;;;;;1.70;0.85;;;13.40;79.80;;;;;;6212533;23;20024;-66
2022/09/16 05:35:12;;;;;;;1.83;0.80;;;13.40;79.90;;;;;;6213028;23;20000;-66
2022/09/16 05:37:37;;;;;;;2.17;0.85;;;13.40;79.90;;;;;;6212885;23;20009;-66
2022/09/16 05:41:27;;;;;;;1.42;0.80;;;13.40;79.80;;;;;;6213268;23;20054;-66
2022/09/16 05:43:56;;;;;;;1.40;0.90;;;13.40;79.80;;;;;;6105702;23;20420;-65
2022/09/16 05:46:22;;;;;;;1.15;0.90;;;13.30;79.80;;;;;;6212263;23;20055;-66
2022/09/16 05:48:49;;;;;;;2.92;0.93;;;13.30;79.90;;;;;;6211707;23;19997;-66
2022/09/16 05:51:17;;;;;;;2.67;0.80;;;13.30;79.90;;;;;;6212245;23;20438;-66
2022/09/16 05:53:43;;;;;;;2.35;0.90;;;13.30;79.80;;;;;;6212298;23;19996;-66
2022/09/16 05:56:14;;;;;;;1.77;0.80;;;13.40;79.90;;;;;;6211909;23;20011;-67
2022/09/16 05:58:40;;;;;;;0.95;0.75;;;14.40;78.90;;;;;;6212177;23;20337;-66
2022/09/16 06:01:10;;;;;;;1.17;0.70;;;15.60;76.00;;;;;;6212750;23;20079;-65
2022/09/16 06:03:38;;;;;;;1.88;0.70;;;16.80;72.80;;;;;;6212017;23;20004;-66
2022/09/16 06:06:12;;;;;;;2.42;0.80;;;17.80;70.00;;;;;;6212218;23;20008;-67
2022/09/16 06:08:38;;;;;;;1.58;0.80;;;18.70;67.40;;;;;;6211747;23;20032;-65
2022/09/16 06:11:07;;;;;;;2.63;0.80;;;18.60;66.20;;;;;;6212218;23;20008;-66
2022/09/16 06:13:33;;;;;;;2.35;0.80;;;18.30;66.40;;;;;;6211756;23;19997;-66
2022/09/16 06:16:00;;;;;;;1.38;0.70;;;18.00;66.70;;;;;;6209719;23;20008;-66
2022/09/16 06:18:27;;;;;;;1.70;0.70;;;17.90;67.30;;;;;;6211189;23;20008;-66
2022/09/16 06:20:53;;;;;;;1.73;0.73;;;17.80;67.70;;;;;;6211696;23;20004;-67
2022/09/16 06:23:19;;;;;;;1.30;0.70;;;17.80;67.80;;;;;;6211841;23;20008;-66
2022/09/16 06:25:45;;;;;;;2.10;0.90;;;17.70;67.80;;;;;;6211484;23;20000;-65
2022/09/16 06:28:11;;;;;;;2.58;0.90;;;17.60;67.50;;;;;;6211496;23;20005;-66
2022/09/16 06:30:38;;;;;;;1.58;0.90;;;17.30;67.70;;;;;;6210595;23;20001;-66
2022/09/16 06:33:08;;;;;;;1.95;0.70;;;17.10;68.00;;;;;;6211294;23;20008;-66
2022/09/16 06:35:34;;;;;;;1.77;0.80;;;16.90;68.70;;;;;;6212080;23;20063;-66
2022/09/16 06:38:00;;;;;;;2.17;0.93;;;16.80;69.10;;;;;;6210968;23;20426;-66
2022/09/16 06:40:26;;;;;;;2.60;0.90;;;16.50;69.20;;;;;;6210959;23;20005;-67
2022/09/16 06:42:55;;;;;;;2.25;0.80;;;16.50;69.50;;;;;;6211963;23;20000;-67
2022/09/16 06:45:22;;;;;;;2.10;0.70;;;16.40;69.60;;;;;;6211932;23;20011;-66
2022/09/16 06:47:47;;;;;;;1.38;0.82;;;16.30;69.80;;;;;;6211783;23;20068;-67
2022/09/16 06:50:13;;;;;;;1.92;1.00;;;16.20;70.00;;;;;;6211872;23;20000;-67
2022/09/16 06:52:38;;;;;;;1.42;0.80;;;16.20;70.10;;;;;;6210624;23;20000;-67
2022/09/16 06:55:04;;;;;;;2.13;0.80;;;16.20;70.30;;;;;;6211837;23;20433;-66
2022/09/16 06:57:30;;;;;;;1.63;0.80;;;16.20;70.30;;;;;;6211533;23;20001;-66
2022/09/16 06:59:56;;;;;;;2.72;0.75;;;16.20;70.30;;;;;;6211417;23;20020;-66
2022/09/16 07:02:22;;;;;;;1.65;0.90;;;16.20;70.40;;;;;;6211945;23;20001;-66
2022/09/16 07:04:48;;;;;;;2.03;1.00;;;16.20;70.50;;;;;;6211013;23;20079;-67
2022/09/16 07:07:14;;;;;;;2.72;0.80;;;16.20;70.60;;;;;;6211654;23;20040;-66
2022/09/16 07:09:40;;;;;;;1.23;0.77;;;16.10;70.50;;;;;;6211133;23;20001;-66
2022/09/16 07:12:06;;;;;;;2.28;0.90;;;16.10;70.60;;;;;;6210958;23;19997;-66
2022/09/16 07:14:32;;;;;;;1.85;0.80;;;16.20;70.60;;;;;;6211908;23;20654;-66
2022/09/16 07:16:59;;;;;;;2.17;0.90;;;16.20;70.60;;;;;;6210920;23;20001;-66
2022/09/16 07:19:25;;;;;;;2.67;0.90;;;16.30;70.60;;;;;;6211135;23;20000;-66
2022/09/16 07:21:51;;;;;;;1.75;0.73;;;16.30;70.50;;;;;;6210297;23;20015;-67
2022/09/16 07:24:17;;;;;;;1.48;0.60;;;16.40;70.50;;;;;;6211738;23;20000;-65
2022/09/16 07:26:44;;;;;;;2.35;0.80;;;16.60;70.20;;;;;;6211580;23;20035;-65
2022/09/16 07:29:14;;;;;;;1.38;0.82;;;16.70;70.10;;;;;;6211901;23;20422;-65
2022/09/16 07:31:41;;;;;;;2.75;0.95;;;16.70;69.70;;;;;;6211721;23;20072;-65
2022/09/16 07:34:08;;;;;;;1.10;0.77;;;16.70;69.80;;;;;;6211670;23;20047;-65
2022/09/16 07:36:43;;;;;;;4.00;1.02;;;16.70;69.80;;;;;;6211945;23;20012;-65
2022/09/16 07:39:10;;;;;;;2.60;0.98;;;16.70;69.80;;;;;;6211681;23;20059;-65
2022/09/16 07:41:38;;;;;;;2.78;0.90;;;16.60;69.80;;;;;;6211446;23;20038;-66
2022/09/16 07:44:06;;;;;;;2.53;0.80;;;16.50;70.00;;;;;;6211526;23;20096;-65
2022/09/16 07:46:33;;;;;;;2.08;0.88;;;16.60;70.10;;;;;;6211487;23;20495;-66
2022/09/16 07:49:00;;;;;;;2.08;0.70;;;16.60;70.20;;;;;;6211565;23;20000;-66
2022/09/16 07:51:27;;;;;;;2.72;0.90;;;16.60;70.10;;;;;;6211665;23;20008;-65
2022/09/16 07:53:55;;;;;;;2.88;1.05;;;16.60;69.70;;;;;;6211379;23;20031;-66
2022/09/16 07:56:24;;;;;;;1.35;0.70;;;16.50;69.70;;;;;;6211488;23;20004;-66
2022/09/16 07:58:49;;;;;;;1.55;0.70;;;16.60;70.00;;;;;;6211436;23;20487;-66
2022/09/16 08:01:15;;;;;;;2.47;0.90;;;16.60;69.70;;;;;;6211618;23;20005;-66
2022/09/16 08:03:43;;;;;;;1.98;0.70;;;16.70;68.60;;;;;;6209736;23;20012;-66
2022/09/16 08:06:12;;;;;;;3.42;0.90;;;16.80;68.40;;;;;;6211665;23;20008;-66
2022/09/16 08:08:37;;;;;;;3.50;1.17;;;16.80;67.40;;;;;;6211122;23;20525;-66
2022/09/16 08:11:03;;;;;;;3.03;0.80;;;16.90;67.20;;;;;;6211586;23;20065;-66
2022/09/16 08:13:31;;;;;;;2.60;0.82;;;16.80;67.00;;;;;;6211286;23;20001;-66
2022/09/16 08:16:02;;;;;;;1.63;0.70;;;16.80;66.60;;;;;;6211708;23;20005;-66
2022/09/16 08:18:28;;;;;;;1.83;0.50;;;16.70;66.50;;;;;;6211287;23;20043;-66
2022/09/16 08:20:54;;;;;;;1.05;0.50;;;16.70;66.50;;;;;;6211396;23;20009;-66
2022/09/16 08:23:20;;;;;;;3.40;0.65;;;16.60;66.50;;;;;;6211576;23;20081;-66
2022/09/16 08:25:46;;;;;;;1.83;0.60;;;16.60;66.70;;;;;;6211356;23;20473;-66
2022/09/16 08:28:16;;;;;;;2.53;1.00;;;16.60;66.70;;;;;;6211736;23;20008;-66
2022/09/16 08:30:42;;;;;;;2.97;0.73;;;16.70;66.70;;;;;;6211594;23;19997;-65
2022/09/16 08:33:09;;;;;;;1.70;0.68;;;16.60;66.70;;;;;;6209983;23;20052;-65
2022/09/16 08:35:35;;;;;;;1.80;0.77;;;16.70;67.00;;;;;;6211435;23;20015;-66
2022/09/16 08:38:01;;;;;;;1.35;0.70;;;16.70;67.10;;;;;;6211308;23;20370;-66
2022/09/16 08:40:31;;;;;;;2.33;0.63;;;16.80;67.10;;;;;;6211403;23;20373;-66
2022/09/16 08:42:59;;;;;;;3.83;0.80;;;16.90;67.00;;;;;;6211102;23;20000;-66
2022/09/16 08:45:27;;;;;;;4.47;0.90;;;17.00;66.60;;;;;;6210919;23;20015;-65
2022/09/16 08:48:09;;;;;;;3.33;0.90;;;17.00;66.50;;;;;;6209595;23;20091;-65
2022/09/16 08:50:39;;;;;;;2.00;0.80;;;17.00;66.30;;;;;;6211062;23;20139;-66
2022/09/16 08:53:12;;;;;;;1.98;0.68;;;17.10;66.10;;;;;;6211872;23;20460;-66
2022/09/16 08:55:41;;;;;;;3.05;0.75;;;17.30;66.00;;;;;;6213389;23;20004;-66
2022/09/16 08:58:22;;;;;;;1.55;0.77;;;17.40;65.30;;;;;;6213036;23;20032;-66
2022/09/16 09:00:54;;;;;;;2.80;0.80;;;17.50;64.60;;;;;;6212415;23;20010;-66
2022/09/16 09:03:40;;;;;;;1.77;0.73;;;17.40;64.10;;;;;;6212888;23;20009;-66
2022/09/16 09:06:30;;;;;;;2.85;0.80;;;17.30;63.80;;;;;;6212244;23;20004;-67
2022/09/16 09:09:01;;;;;;;1.65;0.52;;;17.20;63.30;;;;;;6197460;23;20076;-66
2022/09/16 09:11:37;;;;;;;2.20;0.63;;;17.20;63.60;;;;;;6212805;23;20449;-65
2022/09/16 09:14:34;;;;;;;2.08;0.70;;;17.20;63.40;;;;;;6212497;23;20008;-65
2022/09/16 09:17:11;;;;;;;1.08;0.50;;;17.20;62.80;;;;;;6212660;23;20602;-65
2022/09/16 09:19:47;;;;;;;1.23;0.60;;;17.30;62.00;;;;;;6213074;23;20079;-65
2022/09/16 09:22:33;;;;;;;2.28;0.68;;;17.20;61.00;;;;;;6212928;23;20433;-65
2022/09/16 09:25:26;;;;;;;1.20;0.57;;;17.10;59.90;;;;;;6212970;23;20000;-65
2022/09/16 09:28:34;;;;;;;2.15;0.70;;;17.10;60.30;;;;;;6212425;23;20016;-65
2022/09/16 09:31:25;;;;;;;2.45;0.57;;;17.10;60.20;;;;;;6166003;23;20421;-65
2022/09/16 09:34:14;;;;;;;2.53;0.80;;;17.00;60.00;;;;;;6213472;23;20092;-65
2022/09/16 09:37:04;;;;;;;2.00;0.60;;;17.00;59.80;;;;;;6212588;23;20051;-65
2022/09/16 09:39:29;;;;;;;1.63;0.52;;;17.00;59.60;;;;;;6212631;23;20051;-65
2022/09/16 09:42:11;;;;;;;1.58;0.77;;;17.00;59.90;;;;;;6212902;23;20008;-65
2022/09/16 09:44:53;;;;;;;;;;;17.00;60.00;;;;;;6213169;23;20031;-65
2022/09/16 09:47:25;;;;;;;1.38;0.60;;;17.10;60.20;;;;;;6212786;23;20244;-65
2022/09/16 09:49:55;;;;;;;1.35;0.80;;;17.10;59.60;;;;;;6212614;23;20004;-66
2022/09/16 09:52:38;;;;;;;3.40;1.27;;;17.20;58.90;;;;;;6212636;23;20004;-65
2022/09/16 09:55:17;;;;;;;1.70;0.80;;;17.30;58.70;;;;;;6212743;23;20001;-66
2022/09/16 09:58:05;;;;;;;1.88;0.60;;;17.40;58.10;;;;;;6212483;23;20438;-66
2022/09/16 10:00:31;;;;;;;1.10;0.63;;;17.50;57.70;;;;;;6212793;23;19997;-65
2022/09/16 10:03:15;;;;;;;1.88;0.80;;;17.60;57.60;;;;;;6212305;23;19996;-65
2022/09/16 10:05:42;;;;;;;1.75;0.70;;;17.70;57.20;;;;;;6212450;23;20563;-66
2022/09/16 10:08:22;;;;;;;2.53;0.80;;;17.70;56.70;;;;;;6212155;23;20445;-65
2022/09/16 10:10:55;;;;;;;2.72;0.70;;;17.80;56.80;;;;;;6213081;23;20067;-65
2022/09/16 10:13:22;;;;;;;1.52;0.73;;;17.70;56.70;;;;;;6212842;23;20414;-65
2022/09/16 10:15:49;;;;;;;2.03;0.90;;;17.60;57.70;;;;;;6211414;23;20055;-65
2022/09/16 10:18:25;;;;;;;1.75;0.85;;;17.50;57.30;;;;;;6212608;23;20015;-66
2022/09/16 10:21:11;;;;;;;1.23;0.60;;;17.60;57.70;;;;;;6212872;23;20091;-66
2022/09/16 10:23:38;;;;;;;1.50;0.75;;;17.70;57.60;;;;;;6213036;23;20027;-66
2022/09/16 10:26:06;;;;;;;1.65;0.70;;;17.60;57.10;;;;;;6212595;23;20088;-66
2022/09/16 10:28:32;;;;;;;1.98;0.85;;;17.80;57.50;;;;;;6212641;23;20009;-66
2022/09/16 10:30:59;;;;;;;1.38;0.65;;;17.90;57.00;;;;;;6212580;23;20365;-66
2022/09/16 10:33:55;;;;;;;1.73;0.70;;;18.00;56.90;;;;;;6212843;23;20028;-65
2022/09/16 10:36:25;;;;;;;1.20;0.60;;;18.10;56.70;;;;;;6208107;23;20070;-65
2022/09/16 10:38:57;;;;;;;3.00;1.00;;;18.20;55.90;;;;;;6213072;23;20024;-65
2022/09/16 10:41:40;;;;;;;2.17;0.70;;;18.30;54.90;;;;;;6212869;23;20005;-65
2022/09/16 10:44:27;;;;;;;3.30;1.20;;;18.40;54.80;;;;;;6212968;23;20421;-66
2022/09/16 10:47:17;;;;;;;2.83;1.17;;;18.50;54.70;;;;;;6211477;23;20008;-66
2022/09/16 10:49:51;;;;;;;2.90;1.13;;;18.50;54.60;;;;;;6210823;23;20004;-66
2022/09/16 10:52:17;;;;;;;1.50;0.90;;;18.50;53.80;;;;;;6209745;23;20084;-65
2022/09/16 10:54:43;;;;;;;0.80;0.80;;;18.60;53.90;;;;;;6211766;23;20021;-65
2022/09/16 10:57:29;;;;;;;4.28;1.25;;;18.70;54.20;;;;;;6211367;23;20011;-65
2022/09/16 11:00:00;;;;;;;2.80;1.00;;;18.70;53.10;;;;;;6212020;23;20004;-66
2022/09/16 11:02:38;;;;;;;4.00;1.40;;;18.70;52.90;;;;;;6212353;23;20126;-66
2022/09/16 11:05:15;;;;;;;2.75;1.30;;;18.60;52.70;;;;;;6212092;23;20050;-66
2022/09/16 11:07:46;;;;;;;2.22;1.00;;;18.60;52.70;;;;;;6212394;23;20032;-66
2022/09/16 11:10:30;;;;;;;1.52;0.70;;;18.40;52.80;;;;;;6212294;23;20311;-66
2022/09/16 11:13:25;;;;;;;2.38;0.90;;;18.40;53.40;;;;;;6212488;23;20004;-66
2022/09/16 11:16:21;;;;;;;1.42;0.68;;;18.50;53.50;;;;;;6211959;23;20039;-66
2022/09/16 11:19:32;;;;;;;1.95;0.70;;;18.50;53.70;;;;;;6212424;23;20000;-64
2022/09/16 11:22:25;;;;;;;1.23;0.85;;;18.20;53.90;;;;;;6119473;23;20006;-64
2022/09/16 11:25:16;;;;;;;1.40;0.70;;;18.10;54.40;;;;;;6119912;23;20010;-64
2022/09/16 11:27:57;;;;;;;1.00;0.70;;;18.00;53.90;;;;;;6200128;23;20016;-64
2022/09/16 11:30:22;;;;;;;1.90;0.93;;;18.00;54.30;;;;;;6211901;23;20000;-65
2022/09/16 11:33:03;;;;;;;2.42;1.17;;;18.00;54.10;;;;;;6211361;23;20059;-64
2022/09/16 11:35:56;;;;;;;2.70;1.15;;;18.10;53.60;;;;;;6211379;23;20001;-64
2022/09/16 11:38:24;;;;;;;2.53;1.00;;;18.30;53.50;;;;;;6211510;23;20323;-64
2022/09/16 11:41:04;;;;;;;2.15;0.93;;;18.40;53.10;;;;;;6211386;23;20054;-65
2022/09/16 11:43:36;;;;;;;1.75;0.90;;;18.50;52.70;;;;;;6211686;23;20001;-65
2022/09/16 11:46:17;;;;;;;1.50;0.70;;;18.70;52.20;;;;;;6211627;23;20055;-65
2022/09/16 11:49:20;;;;;;;2.55;0.90;;;18.70;51.00;;;;;;6211495;23;20058;-65
2022/09/16 11:52:07;;;;;;;2.33;0.80;;;18.80;50.30;;;;;;6211426;23;19997;-65
2022/09/16 11:54:49;;;;;;;1.80;0.80;;;19.00;49.80;;;;;;6211711;23;20003;-66
2022/09/16 11:57:23;;;;;;;2.67;0.90;;;18.80;48.90;;;;;;6209945;23;20398;-65
2022/09/16 12:00:11;;;;;;;4.10;1.20;;;18.60;48.20;;;;;;6211577;23;20035;-66
2022/09/16 12:02:44;;;;;;;3.47;0.98;;;18.40;48.50;;;;;;6209970;23;20441;-66
2022/09/16 12:05:12;;;;;;;3.25;1.00;;;18.40;48.00;;;;;;6211372;23;20380;-66
2022/09/16 12:08:03;;;;;;;2.30;0.70;;;18.50;48.50;;;;;;6210902;23;20028;-66
2022/09/16 12:10:57;;;;;;;2.72;0.90;;;18.60;47.80;;;;;;6209887;23;20059;-66
2022/09/16 12:13:38;;;;;;;2.92;1.20;;;18.80;47.60;;;;;;6202419;23;20005;-66
2022/09/16 12:16:15;;;;;;;5.82;1.27;;;18.90;47.30;;;;;;6211509;23;20429;-66
2022/09/16 12:18:54;;;;;;;3.15;1.00;;;19.10;46.10;;;;;;6211063;23;20058;-66
2022/09/16 12:21:23;;;;;;;2.88;1.02;;;19.00;46.80;;;;;;6209219;23;20001;-65
2022/09/16 12:23:54;;;;;;;2.15;0.90;;;19.10;46.50;;;;;;6210606;23;20027;-66
2022/09/16 12:26:33;;;;;;;2.72;1.10;;;19.30;46.70;;;;;;6210711;23;20007;-66
2022/09/16 12:29:18;;;;;;;3.22;1.02;;;19.40;46.50;;;;;;6211105;23;20004;-66
2022/09/16 12:32:01;;;;;;;3.28;1.08;;;19.60;46.60;;;;;;6211084;23;20008;-66
2022/09/16 12:34:38;;;;;;;2.83;1.00;;;19.70;46.00;;;;;;6211536;23;19997;-65
2022/09/16 12:37:09;;;;;;;4.20;1.08;;;19.70;45.90;;;;;;6211155;23;20009;-65
2022/09/16 12:39:35;;;;;;;5.15;1.23;;;19.50;45.90;;;;;;6211653;23;20437;-65
2022/09/16 12:42:09;;;;;;;4.88;1.00;;;19.50;46.20;;;;;;6211146;23;20072;-65
2022/09/16 12:45:09;;;;;;;4.22;0.95;;;19.40;47.10;;;;;;6211394;23;20392;-66
2022/09/16 12:47:50;;;;;;;2.30;0.70;;;19.50;48.00;;;;;;6210935;23;20004;-66
2022/09/16 12:50:35;;;;;;;4.05;1.05;;;19.60;48.60;;;;;;6211054;23;19996;-66
2022/09/16 12:53:33;;;;;;;4.35;0.90;;;19.70;49.20;;;;;;6211296;23;20422;-66
2022/09/16 12:56:07;;;;;;;3.10;0.90;;;19.60;50.10;;;;;;6211255;23;20012;-65
2022/09/16 12:58:51;;;;;;;4.53;1.02;;;19.70;50.10;;;;;;6211099;23;20005;-66
2022/09/16 13:01:37;;;;;;;3.47;1.15;;;19.80;50.20;;;;;;6210750;23;20032;-66
2022/09/16 13:04:13;;;;;;;3.47;1.10;;;19.80;50.10;;;;;;6210926;23;20334;-66
2022/09/16 13:06:46;;;;;;;3.67;1.15;;;19.90;49.80;;;;;;6210924;23;20040;-66
2022/09/16 13:09:26;;;;;;;5.07;1.10;;;19.90;49.40;;;;;;6211424;23;20000;-66
2022/09/16 13:12:00;;;;;;;1.85;0.80;;;19.90;49.60;;;;;;6210796;23;20037;-65
2022/09/16 13:14:46;;;;;;;3.13;0.90;;;19.90;49.60;;;;;;6210645;23;20021;-65
2022/09/16 13:17:12;;;;;;;5.22;1.10;;;20.00;49.40;;;;;;6210669;23;20303;-66
2022/09/16 13:19:50;;;;;;;4.03;1.00;;;19.90;49.10;;;;;;6210698;23;20092;-66